createdAt,value
2018-01-05T00:01:31.865Z,8.70
2018-01-05T00:03:59.604Z,8.70
2018-01-05T00:06:27.203Z,8.60
2018-01-05T00:08:54.793Z,8.60
2018-01-05T00:11:23.410Z,8.80
2018-01-05T00:13:51.022Z,8.80
2018-01-05T00:16:19.633Z,8.80
2018-01-05T00:18:47.402Z,8.80
2018-01-05T00:21:15.554Z,8.80
2018-01-05T00:23:43.379Z,8.80
2018-01-05T00:26:11.211Z,8.80
2018-01-05T00:28:39.060Z,8.80
2018-01-05T00:31:06.679Z,8.80
2018-01-05T00:33:34.793Z,8.80
2018-01-05T00:36:02.589Z,8.70
2018-01-05T00:38:31.146Z,8.70
2018-01-05T00:40:59.293Z,8.60
2018-01-05T00:43:27.556Z,8.50
2018-01-05T00:45:56.492Z,8.50
2018-01-05T00:48:24.403Z,8.50
2018-01-05T00:50:52.330Z,8.50
2018-01-05T00:53:21.243Z,8.50
2018-01-05T00:55:49.907Z,8.40
2018-01-05T00:58:17.593Z,8.40
2018-01-05T01:00:46.263Z,8.40
2018-01-05T01:03:15.756Z,8.40
2018-01-05T01:05:43.622Z,8.30
2018-01-05T01:08:11.993Z,8.30
2018-01-05T01:10:40.175Z,8.30
2018-01-05T01:13:07.755Z,8.30
2018-01-05T01:15:36.876Z,8.20
2018-01-05T01:18:04.611Z,8.20
2018-01-05T01:20:32.261Z,8.20
2018-01-05T01:23:00.617Z,8.10
2018-01-05T01:25:28.412Z,8.10
2018-01-05T01:27:55.965Z,8.10
2018-01-05T01:30:24.264Z,8.10
2018-01-05T01:32:52.261Z,8.10
2018-01-05T01:35:21.111Z,8.00
2018-01-05T01:37:48.790Z,8.00
2018-01-05T01:40:17.244Z,8.10
2018-01-05T01:42:44.916Z,8.10
2018-01-05T01:45:12.478Z,8.00
2018-01-05T01:47:40.593Z,8.00
2018-01-05T01:50:08.219Z,8.00
2018-01-05T01:52:36.110Z,8.00
2018-01-05T01:55:04.257Z,8.00
2018-01-05T01:57:32.941Z,8.00
2018-01-05T02:00:00.786Z,7.90
2018-01-05T02:02:28.490Z,7.90
2018-01-05T02:04:56.340Z,7.90
2018-01-05T02:07:24.815Z,7.90
2018-01-05T02:09:52.919Z,7.90
2018-01-05T02:12:20.808Z,7.90
2018-01-05T02:14:49.683Z,7.90
2018-01-05T02:17:17.312Z,7.90
2018-01-05T02:19:44.909Z,8.00
2018-01-05T02:22:12.545Z,8.00
2018-01-05T02:24:40.321Z,8.00
2018-01-05T02:27:07.880Z,8.00
2018-01-05T02:29:35.859Z,8.00
2018-01-05T02:32:04.276Z,8.00
2018-01-05T02:34:32.074Z,8.00
2018-01-05T02:37:00.569Z,8.00
2018-01-05T02:39:28.235Z,8.00
2018-01-05T02:41:55.854Z,8.00
2018-01-05T02:59:46.504Z,8.00
2018-01-05T03:02:15.183Z,8.00
2018-01-05T03:04:44.483Z,7.90
2018-01-05T03:07:12.140Z,7.90
2018-01-05T03:09:39.679Z,7.90
2018-01-05T03:12:07.232Z,7.90
2018-01-05T03:14:35.169Z,7.80
2018-01-05T03:17:04.253Z,7.80
2018-01-05T03:19:32.106Z,7.80
2018-01-05T03:22:00.165Z,7.80
2018-01-05T03:24:29.977Z,7.80
2018-01-05T03:26:57.557Z,7.80
2018-01-05T03:29:39.106Z,7.70
2018-01-05T03:32:06.789Z,7.70
2018-01-05T03:34:34.511Z,7.70
2018-01-05T03:37:02.871Z,7.70
2018-01-05T03:39:30.831Z,7.70
2018-01-05T03:41:58.881Z,7.70
2018-01-05T03:44:26.436Z,7.70
2018-01-05T03:46:54.406Z,7.70
2018-01-05T03:49:23.459Z,7.70
2018-01-05T03:51:51.174Z,7.60
2018-01-05T03:54:19.530Z,7.60
2018-01-05T03:56:48.090Z,7.60
2018-01-05T03:59:15.792Z,7.60
2018-01-05T04:01:44.452Z,7.60
2018-01-05T04:04:12.013Z,7.60
2018-01-05T04:06:39.810Z,7.60
2018-01-05T04:09:08.701Z,7.60
2018-01-05T04:11:37.715Z,7.60
2018-01-05T04:14:05.297Z,7.60
2018-01-05T04:16:33.615Z,7.60
2018-01-05T04:19:01.736Z,7.60
2018-01-05T04:21:29.972Z,7.60
2018-01-05T04:23:57.997Z,7.60
2018-01-05T04:26:26.375Z,7.60
2018-01-05T04:28:53.978Z,7.50
2018-01-05T04:31:21.777Z,7.60
2018-01-05T04:33:50.841Z,7.60
2018-01-05T04:36:18.729Z,7.60
2018-01-05T04:38:46.367Z,7.60
2018-01-05T04:41:13.959Z,7.60
2018-01-05T04:43:41.725Z,7.60
2018-01-05T04:46:10.083Z,7.50
2018-01-05T04:48:37.880Z,7.50
2018-01-05T04:51:05.853Z,7.50
2018-01-05T04:53:33.384Z,7.50
2018-01-05T04:56:01.557Z,7.40
2018-01-05T04:58:29.330Z,7.40
2018-01-05T05:00:57.198Z,7.40
2018-01-05T05:03:26.217Z,7.40
2018-01-05T05:05:54.642Z,7.40
2018-01-05T05:08:22.309Z,7.40
2018-01-05T05:10:50.105Z,7.30
2018-01-05T05:13:17.798Z,7.20
2018-01-05T05:15:45.531Z,7.20
2018-01-05T05:33:35.935Z,7.20
2018-01-05T05:36:03.793Z,7.00
2018-01-05T05:38:32.083Z,7.00
2018-01-05T05:41:00.066Z,7.00
2018-01-05T05:43:28.475Z,7.00
2018-01-05T05:45:57.022Z,7.00
2018-01-05T05:48:24.760Z,7.00
2018-01-05T05:50:52.445Z,7.00
2018-01-05T05:53:22.865Z,6.90
2018-01-05T05:55:51.071Z,6.90
2018-01-05T05:58:18.800Z,6.90
2018-01-05T06:00:47.692Z,6.90
2018-01-05T06:03:15.392Z,6.90
2018-01-05T06:05:43.413Z,6.70
2018-01-05T06:08:11.439Z,6.70
2018-01-05T06:10:39.577Z,6.70
2018-01-05T06:13:07.435Z,6.70
2018-01-05T06:15:36.054Z,6.70
2018-01-05T06:18:03.657Z,6.70
2018-01-05T06:20:35.027Z,6.70
2018-01-05T06:23:03.126Z,6.70
2018-01-05T06:25:31.593Z,6.70
2018-01-05T06:27:59.482Z,6.70
2018-01-05T06:30:28.554Z,6.70
2018-01-05T06:32:56.405Z,6.70
2018-01-05T06:35:24.456Z,6.70
2018-01-05T06:37:53.835Z,6.70
2018-01-05T06:40:21.446Z,6.70
2018-01-05T06:42:48.976Z,6.70
2018-01-05T06:45:16.683Z,6.70
2018-01-05T06:47:45.060Z,6.70
2018-01-05T06:50:12.740Z,6.70
2018-01-05T06:52:40.455Z,6.70
2018-01-05T06:55:08.379Z,6.70
2018-01-05T06:57:35.936Z,6.70
2018-01-05T07:00:03.683Z,6.70
2018-01-05T07:02:33.558Z,6.70
2018-01-05T07:05:02.246Z,6.70
2018-01-05T07:07:30.354Z,6.60
2018-01-05T07:09:58.041Z,6.60
2018-01-05T07:12:26.417Z,6.60
2018-01-05T07:14:54.531Z,6.60
2018-01-05T07:17:23.464Z,6.60
2018-01-05T07:19:51.549Z,6.60
2018-01-05T07:22:19.506Z,6.60
2018-01-05T07:24:47.834Z,6.60
2018-01-05T07:27:15.538Z,6.60
2018-01-05T07:29:43.150Z,6.60
2018-01-05T07:32:10.992Z,6.70
2018-01-05T07:34:39.557Z,6.70
2018-01-05T07:37:07.335Z,6.70
2018-01-05T07:39:35.112Z,6.70
2018-01-05T07:42:02.706Z,6.80
2018-01-05T07:44:30.414Z,6.80
2018-01-05T07:46:58.024Z,6.80
2018-01-05T07:49:26.098Z,6.80
2018-01-05T07:51:54.435Z,6.70
2018-01-05T07:54:22.140Z,6.80
2018-01-05T07:56:50.460Z,6.80
2018-01-05T07:59:18.264Z,6.80
2018-01-05T08:01:47.257Z,6.80
2018-01-05T08:04:15.947Z,6.80
2018-01-05T08:06:44.640Z,6.80
2018-01-05T08:09:13.615Z,6.80
2018-01-05T08:11:41.816Z,6.80
2018-01-05T10:08:12.405Z,8.10
2018-01-05T10:10:41.211Z,8.10
2018-01-05T10:13:09.038Z,8.10
2018-01-05T10:15:36.605Z,8.10
2018-01-05T10:18:04.257Z,8.10
2018-01-05T10:20:31.827Z,8.10
2018-01-05T10:22:59.491Z,8.20
2018-01-05T10:25:27.067Z,8.20
2018-01-05T10:27:54.731Z,8.30
2018-01-05T10:30:22.426Z,8.30
2018-01-05T10:32:49.976Z,8.30
2018-01-05T10:35:17.640Z,8.30
2018-01-05T10:37:46.407Z,8.40
2018-01-05T10:40:14.004Z,8.40
2018-01-05T10:42:42.171Z,8.40
2018-01-05T10:45:09.941Z,8.50
2018-01-05T10:47:37.796Z,8.50
2018-01-05T10:50:06.864Z,8.60
2018-01-05T10:52:34.645Z,8.60
2018-01-05T10:55:02.523Z,8.60
2018-01-05T10:57:30.152Z,8.70
2018-01-05T10:59:57.973Z,8.70
2018-01-05T11:02:25.520Z,8.80
2018-01-05T11:04:53.817Z,8.90
2018-01-05T11:07:22.463Z,8.90
2018-01-05T11:09:50.117Z,8.90
2018-01-05T11:12:17.968Z,9.00
2018-01-05T11:14:47.115Z,9.10
2018-01-05T11:17:15.451Z,9.10
2018-01-05T11:19:43.447Z,9.10
2018-01-05T11:22:12.340Z,9.20
2018-01-05T11:24:41.014Z,9.20
2018-01-05T11:27:08.889Z,9.20
2018-01-05T11:29:37.520Z,9.20
2018-01-05T11:32:05.084Z,9.20
2018-01-05T11:34:33.394Z,9.30
2018-01-05T11:37:01.568Z,9.30
2018-01-05T11:39:29.173Z,9.30
2018-01-05T11:41:56.856Z,9.30
2018-01-05T11:44:24.803Z,9.30
2018-01-05T11:46:52.444Z,9.30
2018-01-05T11:49:20.124Z,9.40
2018-01-05T11:51:48.558Z,9.40
2018-01-05T11:54:16.155Z,9.40
2018-01-05T11:56:43.765Z,9.40
2018-01-05T11:59:12.077Z,9.40
2018-01-05T12:01:39.791Z,9.40
2018-01-05T12:04:08.144Z,9.50
2018-01-05T12:06:35.859Z,9.50
2018-01-05T12:09:03.553Z,9.50
2018-01-05T12:11:31.171Z,9.60
2018-01-05T12:13:59.944Z,9.60
2018-01-05T12:16:27.608Z,9.60
2018-01-05T12:18:55.205Z,9.60
2018-01-05T12:21:23.227Z,9.60
2018-01-05T12:23:50.958Z,9.60
2018-01-05T12:26:20.099Z,9.60
2018-01-05T12:28:48.556Z,9.60
2018-01-05T12:31:16.258Z,9.60
2018-01-05T12:33:45.425Z,9.70
2018-01-05T12:36:13.460Z,9.70
2018-01-05T12:38:41.152Z,9.70
2018-01-05T12:41:08.742Z,9.70
2018-01-05T12:43:37.752Z,9.80
2018-01-05T12:46:05.498Z,9.80
2018-01-05T12:48:33.151Z,9.80
2018-01-05T12:51:01.144Z,9.80
2018-01-05T12:53:29.880Z,9.90
2018-01-05T12:55:57.447Z,9.80
2018-01-05T12:58:25.047Z,9.80
2018-01-05T13:00:53.480Z,9.80
2018-01-05T13:03:21.103Z,9.90
2018-01-05T13:05:48.674Z,9.90
2018-01-05T13:08:16.300Z,9.80
2018-01-05T13:10:43.858Z,9.80
2018-01-05T13:13:11.545Z,9.80
2018-01-05T13:15:39.309Z,9.80
2018-01-05T13:18:07.365Z,9.80
2018-01-05T13:20:35.413Z,9.80
2018-01-05T13:23:03.144Z,9.80
2018-01-05T13:25:30.847Z,9.70
2018-01-05T13:27:58.499Z,9.70
2018-01-05T13:30:26.154Z,9.70
2018-01-05T13:32:53.994Z,9.70
2018-01-05T13:35:21.746Z,9.60
2018-01-05T13:37:49.289Z,9.60
2018-01-05T13:40:17.293Z,9.50
2018-01-05T13:42:45.697Z,9.50
2018-01-05T13:45:13.258Z,9.50
2018-01-05T13:47:41.221Z,9.50
2018-01-05T13:50:10.393Z,9.40
2018-01-05T13:52:37.985Z,9.40
2018-01-05T13:55:06.476Z,9.40
2018-01-05T13:57:34.447Z,9.30
2018-01-05T14:00:02.321Z,9.30
2018-01-05T14:02:30.576Z,9.30
2018-01-05T14:04:58.859Z,9.20
2018-01-05T14:07:27.082Z,9.20
2018-01-05T14:09:56.549Z,9.20
2018-01-05T14:12:24.254Z,9.20
2018-01-05T14:14:51.862Z,9.20
2018-01-05T14:22:18.857Z,9.10
2018-01-05T14:24:46.562Z,9.10
2018-01-05T14:27:14.682Z,9.10
2018-01-05T14:29:42.951Z,9.10
2018-01-05T14:32:10.550Z,9.10
2018-01-05T14:34:38.360Z,9.10
2018-01-05T14:37:06.750Z,9.00
2018-01-05T14:39:34.412Z,9.00
2018-01-05T14:42:02.111Z,9.00
2018-01-05T14:44:29.957Z,9.00
2018-01-05T14:46:57.620Z,9.00
2018-01-05T14:49:25.921Z,9.00
2018-01-05T14:51:53.542Z,9.10
2018-01-05T14:54:21.171Z,9.00
2018-01-05T14:56:48.813Z,9.00
2018-01-05T14:59:16.493Z,8.90
2018-01-05T15:01:45.477Z,8.90
2018-01-05T15:04:13.994Z,9.00
2018-01-05T15:06:41.551Z,9.00
2018-01-05T15:09:10.814Z,8.90
2018-01-05T15:11:39.262Z,8.90
2018-01-05T15:14:06.829Z,8.90
2018-01-05T15:16:34.704Z,9.00
2018-01-05T15:19:03.315Z,8.90
2018-01-05T15:21:31.803Z,8.90
2018-01-05T15:23:59.846Z,8.90
2018-01-05T15:26:27.626Z,8.90
2018-01-05T15:28:55.936Z,9.00
2018-01-05T15:31:25.505Z,9.00
2018-01-05T15:33:54.170Z,8.90
2018-01-05T15:36:21.724Z,8.90
2018-01-05T15:38:49.601Z,9.00
2018-01-05T15:41:17.684Z,9.00
2018-01-05T15:43:45.719Z,8.90
2018-01-05T15:46:13.868Z,8.90
2018-01-05T15:48:42.634Z,8.90
2018-01-05T15:51:10.720Z,8.90
2018-01-05T15:53:38.568Z,9.00
2018-01-05T15:56:06.260Z,8.90
2018-01-05T15:58:35.327Z,9.00
2018-01-05T16:01:03.721Z,9.00
2018-01-05T16:03:32.255Z,9.00
2018-01-05T16:06:01.885Z,9.00
2018-01-05T16:08:29.775Z,9.00
2018-01-05T16:10:58.374Z,9.00
2018-01-05T16:13:25.957Z,9.00
2018-01-05T16:15:55.202Z,9.00
2018-01-05T16:18:23.701Z,9.00
2018-01-05T16:20:52.539Z,9.00
2018-01-05T16:23:20.888Z,9.00
2018-01-05T16:25:48.923Z,9.00
2018-01-05T16:28:16.465Z,9.00
2018-01-05T16:30:44.146Z,9.00
2018-01-05T16:33:12.492Z,9.00
2018-01-05T16:35:40.308Z,9.00
2018-01-05T16:38:07.937Z,9.00
2018-01-05T16:40:35.727Z,9.00
2018-01-05T16:43:04.480Z,9.00
2018-01-05T16:45:32.380Z,9.00
2018-01-05T16:48:00.904Z,9.00
2018-01-05T16:50:28.569Z,9.00
2018-01-05T16:52:56.206Z,9.00
2018-01-05T16:55:25.287Z,9.00
2018-01-05T16:57:53.567Z,9.00
2018-01-05T17:00:21.760Z,9.00
2018-01-05T17:02:49.913Z,9.00
2018-01-05T17:05:17.677Z,8.90
2018-01-05T17:07:45.641Z,9.00
2018-01-05T17:10:13.724Z,8.90
2018-01-05T17:12:42.632Z,8.90
2018-01-05T17:15:11.295Z,9.00
2018-01-05T17:17:40.576Z,8.90
2018-01-05T17:20:09.288Z,8.90
2018-01-05T17:22:37.996Z,9.00
2018-01-05T17:25:08.148Z,8.90
2018-01-05T17:27:35.724Z,8.90
2018-01-05T17:30:03.726Z,8.90
2018-01-05T17:32:32.641Z,8.90
2018-01-05T17:35:01.270Z,9.00
2018-01-05T17:37:29.060Z,9.00
2018-01-05T17:39:56.720Z,9.00
2018-01-05T17:42:24.271Z,9.00
2018-01-05T17:44:51.847Z,8.90
2018-01-05T17:47:19.905Z,8.90
2018-01-05T17:49:47.550Z,8.90
2018-01-05T17:52:15.183Z,8.90
2018-01-05T17:54:43.118Z,8.90
2018-01-05T17:57:11.443Z,9.00
2018-01-05T17:59:39.966Z,8.90
2018-01-05T18:02:09.689Z,8.90
2018-01-05T18:04:37.325Z,8.90
2018-01-05T18:07:05.074Z,8.90
2018-01-05T18:09:33.026Z,8.90
2018-01-05T18:12:01.259Z,8.90
2018-01-05T18:14:28.935Z,8.80
2018-01-05T18:16:56.772Z,8.80
2018-01-05T18:19:24.456Z,8.80
2018-01-05T18:21:52.074Z,8.70
2018-01-05T18:24:20.146Z,8.70
2018-01-05T18:26:48.718Z,8.70
2018-01-05T18:29:16.312Z,8.70
2018-01-05T18:31:43.897Z,8.60
2018-01-05T18:34:12.189Z,8.60
2018-01-05T18:36:40.755Z,8.60
2018-01-05T18:39:08.892Z,8.60
2018-01-05T18:41:36.474Z,8.50
2018-01-05T18:44:04.211Z,8.50
2018-01-05T18:46:33.525Z,8.50
2018-01-05T18:49:02.012Z,8.50
2018-01-05T18:51:29.703Z,8.50
2018-01-05T18:53:57.711Z,8.50
2018-01-05T18:56:26.343Z,8.50
2018-01-05T18:58:53.868Z,8.50
2018-01-05T19:01:24.452Z,8.50
2018-01-05T19:03:52.248Z,8.50
2018-01-05T19:06:20.699Z,8.50
2018-01-05T19:08:48.386Z,8.50
2018-01-05T19:11:16.935Z,8.50
2018-01-05T19:13:44.738Z,8.50
2018-01-05T19:16:13.671Z,8.50
2018-01-05T19:18:41.310Z,8.50
2018-01-05T19:21:09.880Z,8.50
2018-01-05T19:23:37.796Z,8.50
2018-01-05T19:26:05.737Z,8.50
2018-01-05T19:28:33.615Z,8.40
2018-01-05T19:31:01.612Z,8.50
2018-01-05T19:33:29.254Z,8.40
2018-01-05T19:35:56.808Z,8.40
2018-01-05T19:38:24.614Z,8.40
2018-01-05T19:40:52.224Z,8.40
2018-01-05T19:43:19.947Z,8.30
2018-01-05T19:45:47.691Z,8.30
2018-01-05T19:48:15.255Z,8.40
2018-01-05T19:50:43.687Z,8.40
2018-01-05T19:53:13.175Z,8.40
2018-01-05T19:55:41.707Z,8.40
2018-01-05T19:58:09.449Z,8.30
2018-01-05T20:00:37.368Z,8.30
2018-01-05T20:03:05.166Z,8.30
2018-01-05T20:05:34.033Z,8.20
2018-01-05T20:08:02.171Z,8.20
2018-01-05T20:10:29.900Z,8.20
2018-01-05T20:12:57.565Z,8.20
2018-01-05T20:15:26.097Z,8.20
2018-01-05T20:17:54.029Z,8.20
2018-01-05T20:20:22.367Z,8.30
2018-01-05T20:22:49.953Z,8.30
2018-01-05T20:25:20.029Z,8.30
2018-01-05T20:27:49.130Z,8.30
2018-01-05T20:30:18.648Z,8.30
2018-01-05T20:32:46.488Z,8.30
2018-01-05T20:35:15.428Z,8.30
2018-01-05T20:37:44.089Z,8.20
2018-01-05T20:40:12.523Z,8.30
2018-01-05T20:42:40.551Z,8.20
2018-01-05T20:45:08.926Z,8.20
2018-01-05T20:47:37.006Z,8.30
2018-01-05T20:50:05.402Z,8.30
2018-01-05T20:52:33.288Z,8.30
2018-01-05T20:55:01.155Z,8.30
2018-01-05T20:57:28.770Z,8.30
2018-01-05T20:59:56.747Z,8.20
2018-01-05T21:02:25.610Z,8.20
2018-01-05T21:04:53.672Z,8.20
2018-01-05T21:07:22.557Z,8.20
2018-01-05T21:09:50.609Z,8.20
2018-01-05T21:12:19.349Z,8.10
2018-01-05T21:14:47.402Z,8.10
2018-01-05T21:17:15.276Z,8.20
2018-01-05T21:19:44.282Z,8.20
2018-01-05T21:22:13.490Z,8.10
2018-01-05T21:24:41.367Z,8.20
2018-01-05T21:27:09.151Z,8.20
2018-01-05T21:29:37.919Z,8.10
2018-01-05T21:32:05.898Z,8.10
2018-01-05T21:34:34.506Z,8.10
2018-01-05T21:37:02.342Z,8.10
2018-01-05T21:39:30.138Z,8.10
2018-01-05T21:41:57.955Z,8.10
2018-01-05T21:44:26.350Z,8.10
2018-01-05T21:46:54.380Z,8.20
2018-01-05T21:49:22.985Z,8.20
2018-01-05T21:51:50.702Z,8.20
2018-01-05T21:54:18.497Z,8.20
2018-01-05T21:56:46.470Z,8.20
2018-01-05T21:59:15.302Z,8.20
2018-01-05T22:01:42.973Z,8.20
2018-01-05T22:04:11.340Z,8.20
2018-01-05T22:06:39.139Z,8.20
2018-01-05T22:09:07.588Z,8.20
2018-01-05T22:11:35.347Z,8.20
2018-01-05T22:14:03.065Z,8.20
2018-01-05T22:16:32.215Z,8.20
2018-01-05T22:19:00.079Z,8.20
2018-01-05T22:21:27.660Z,8.20
2018-01-05T22:23:55.201Z,8.20
2018-01-05T22:26:22.893Z,8.20
2018-01-05T22:28:51.380Z,8.20
2018-01-05T23:38:32.114Z,8.20
2018-01-05T23:40:59.779Z,8.20
2018-01-05T23:43:27.391Z,8.10
2018-01-05T23:45:55.067Z,8.10
2018-01-05T23:48:22.703Z,8.10
2018-01-05T23:50:50.347Z,8.10
2018-01-05T23:53:17.958Z,8.10
2018-01-05T23:55:45.534Z,8.10
2018-01-05T23:58:13.128Z,8.00
